createdAt,value
2023-10-09T00:01:17.540Z,60.86
2023-10-09T00:03:52.484Z,62.28
2023-10-09T00:06:39.044Z,61.85
2023-10-09T00:09:36.122Z,62.40
2023-10-09T00:12:12.405Z,62.71
2023-10-09T00:14:43.047Z,63.11
2023-10-09T00:17:13.645Z,63.57
2023-10-09T00:19:45.617Z,63.89
2023-10-09T00:22:25.745Z,64.02
2023-10-09T00:25:17.090Z,64.25
2023-10-09T00:27:50.540Z,64.90
2023-10-09T00:30:23.825Z,64.94
2023-10-09T00:33:03.428Z,65.26
2023-10-09T00:35:59.868Z,65.54
2023-10-09T00:38:35.927Z,65.68
2023-10-09T00:41:12.870Z,65.09
2023-10-09T00:43:54.575Z,65.78
2023-10-09T00:46:25.709Z,65.01
2023-10-09T00:49:05.204Z,65.14
2023-10-09T00:51:38.360Z,65.26
2023-10-09T00:54:16.663Z,65.53
2023-10-09T00:56:54.269Z,65.74
2023-10-09T00:59:26.924Z,65.72
2023-10-09T01:02:09.926Z,65.36
2023-10-09T01:04:45.414Z,65.51
2023-10-09T01:07:23.222Z,65.53
2023-10-09T01:09:56.686Z,65.73
2023-10-09T01:12:31.050Z,65.22
2023-10-09T01:15:02.054Z,65.39
2023-10-09T01:17:39.320Z,65.35
2023-10-09T01:20:18.820Z,65.09
2023-10-09T01:22:52.812Z,65.62
2023-10-09T01:25:23.792Z,65.21
2023-10-09T01:27:54.933Z,65.31
2023-10-09T01:30:25.783Z,65.44
2023-10-09T01:32:59.740Z,65.21
2023-10-09T01:35:34.701Z,65.43
2023-10-09T01:38:12.493Z,65.27
2023-10-09T01:40:45.328Z,64.99
2023-10-09T01:43:21.197Z,65.39
2023-10-09T01:45:54.213Z,64.86
2023-10-09T01:48:26.719Z,65.29
2023-10-09T01:50:57.398Z,65.41
2023-10-09T01:53:32.133Z,65.13
2023-10-09T01:56:16.954Z,64.95
2023-10-09T01:58:49.428Z,64.91
2023-10-09T02:01:20.155Z,65.27
2023-10-09T02:03:54.172Z,64.85
2023-10-09T02:06:28.398Z,65.11
2023-10-09T02:08:59.050Z,65.07
2023-10-09T02:11:38.774Z,64.81
2023-10-09T02:14:21.491Z,65.05
2023-10-09T02:17:04.781Z,64.82
2023-10-09T02:19:38.324Z,65.15
2023-10-09T02:22:14.804Z,64.94
2023-10-09T02:25:00.080Z,64.56
2023-10-09T02:28:08.151Z,64.79
2023-10-09T02:30:39.563Z,64.88
2023-10-09T02:33:11.421Z,64.98
2023-10-09T02:35:44.872Z,64.70
2023-10-09T02:38:16.795Z,64.70
2023-10-09T02:41:03.679Z,64.60
2023-10-09T02:43:57.150Z,64.55
2023-10-09T02:46:35.293Z,64.93
2023-10-09T02:49:06.163Z,64.61
2023-10-09T02:51:43.360Z,64.64
2023-10-09T02:54:25.889Z,64.55
2023-10-09T02:57:07.663Z,64.66
2023-10-09T02:59:40.782Z,64.25
2023-10-09T03:02:11.343Z,64.18
2023-10-09T03:04:43.754Z,64.40
2023-10-09T03:07:15.911Z,64.25
2023-10-09T03:09:46.465Z,64.34
2023-10-09T03:12:20.977Z,64.35
2023-10-09T03:14:51.446Z,64.10
2023-10-09T03:17:21.771Z,63.94
2023-10-09T03:19:52.928Z,64.06
2023-10-09T03:22:23.690Z,63.93
2023-10-09T03:24:55.099Z,64.18
2023-10-09T03:27:25.760Z,64.09
2023-10-09T03:29:56.349Z,63.90
2023-10-09T03:32:26.897Z,63.76
2023-10-09T03:34:57.650Z,63.86
2023-10-09T03:37:37.316Z,63.96
2023-10-09T03:40:09.933Z,63.95
2023-10-09T03:42:44.279Z,63.83
2023-10-09T03:45:20.367Z,63.70
2023-10-09T03:47:51.065Z,63.64
2023-10-09T03:50:37.716Z,63.71
2023-10-09T03:53:14.195Z,63.75
2023-10-09T03:55:44.720Z,63.50
2023-10-09T03:58:16.509Z,63.73
2023-10-09T04:00:51.624Z,63.53
2023-10-09T04:03:22.833Z,63.57
2023-10-09T04:05:55.704Z,63.72
2023-10-09T04:08:32.390Z,63.72
2023-10-09T04:11:06.333Z,63.67
2023-10-09T04:13:37.156Z,63.46
2023-10-09T04:16:33.635Z,63.73
2023-10-09T04:19:13.794Z,63.88
2023-10-09T04:21:44.483Z,64.18
2023-10-09T04:24:15.251Z,63.46
2023-10-09T04:26:47.203Z,63.50
2023-10-09T04:29:39.668Z,63.66
2023-10-09T04:32:10.351Z,63.54
2023-10-09T04:34:50.483Z,63.57
2023-10-09T04:37:38.888Z,63.45
2023-10-09T04:40:17.178Z,63.55
2023-10-09T04:43:00.414Z,63.48
2023-10-09T04:45:46.072Z,63.86
2023-10-09T04:48:34.820Z,63.44
2023-10-09T04:51:24.322Z,63.60
2023-10-09T04:54:14.820Z,65.17
2023-10-09T04:56:54.345Z,63.67
2023-10-09T04:59:28.159Z,63.57
2023-10-09T05:02:01.721Z,63.64
2023-10-09T05:04:45.558Z,63.31
2023-10-09T05:07:25.485Z,63.54
2023-10-09T05:10:06.677Z,63.25
2023-10-09T05:12:43.396Z,63.31
2023-10-09T05:15:15.623Z,63.13
2023-10-09T05:17:57.631Z,63.52
2023-10-09T05:20:28.507Z,63.35
2023-10-09T05:23:09.973Z,63.38
2023-10-09T05:25:55.635Z,63.27
2023-10-09T05:28:50.664Z,63.36
2023-10-09T05:31:39.461Z,63.32
2023-10-09T05:34:10.182Z,63.37
2023-10-09T05:36:40.780Z,63.13
2023-10-09T05:39:20.958Z,62.86
2023-10-09T05:41:54.905Z,63.11
2023-10-09T05:44:51.794Z,63.17
2023-10-09T05:47:33.592Z,63.29
2023-10-09T05:50:24.304Z,63.19
2023-10-09T05:52:56.668Z,63.04
2023-10-09T05:55:46.942Z,63.07
2023-10-09T05:58:35.883Z,62.90
2023-10-09T06:01:09.159Z,62.79
2023-10-09T06:03:56.143Z,62.91
2023-10-09T06:06:35.794Z,62.79
2023-10-09T06:09:16.900Z,62.82
2023-10-09T06:11:51.962Z,62.84
2023-10-09T06:14:33.389Z,62.81
2023-10-09T06:17:26.910Z,62.82
2023-10-09T06:20:22.897Z,62.74
2023-10-09T06:22:59.012Z,62.65
2023-10-09T06:25:34.915Z,62.54
2023-10-09T06:28:05.702Z,62.80
2023-10-09T06:30:38.242Z,62.59
2023-10-09T06:33:31.744Z,62.39
2023-10-09T06:36:10.679Z,62.35
2023-10-09T06:39:03.906Z,62.20
2023-10-09T06:41:39.787Z,62.35
2023-10-09T06:44:24.931Z,62.15
2023-10-09T06:46:59.929Z,62.21
2023-10-09T06:49:35.591Z,62.21
2023-10-09T06:52:29.474Z,62.16
2023-10-09T06:55:11.317Z,62.07
2023-10-09T06:57:51.376Z,62.17
2023-10-09T07:00:42.999Z,61.88
2023-10-09T07:03:13.688Z,61.80
2023-10-09T07:06:04.336Z,61.92
2023-10-09T07:08:39.285Z,61.87
2023-10-09T07:11:45.339Z,61.98
2023-10-09T07:14:32.526Z,61.80
2023-10-09T07:17:24.018Z,61.94
2023-10-09T07:19:55.992Z,61.77
2023-10-09T07:22:31.664Z,62.29
2023-10-09T07:25:16.712Z,61.14
2023-10-09T07:27:47.263Z,61.29
2023-10-09T07:30:32.100Z,61.67
2023-10-09T07:33:14.817Z,61.30
2023-10-09T07:35:50.312Z,61.22
2023-10-09T07:38:47.201Z,61.43
2023-10-09T07:41:18.136Z,61.23
2023-10-09T07:43:49.395Z,61.05
2023-10-09T07:46:35.827Z,61.17
2023-10-09T07:49:11.546Z,60.70
2023-10-09T07:51:45.973Z,60.40
2023-10-09T07:54:34.163Z,60.67
2023-10-09T07:57:24.938Z,60.70
2023-10-09T08:00:03.256Z,60.10
2023-10-09T08:02:42.190Z,59.97
2023-10-09T08:05:21.779Z,59.71
2023-10-09T08:08:16.774Z,60.11
2023-10-09T08:11:15.478Z,59.71
2023-10-09T08:13:52.077Z,59.65
2023-10-09T08:16:27.902Z,59.50
2023-10-09T08:18:59.450Z,59.55
2023-10-09T08:21:46.311Z,59.74
2023-10-09T08:24:34.971Z,59.02
2023-10-09T08:27:23.799Z,58.94
2023-10-09T08:30:14.312Z,59.32
2023-10-09T08:35:35.363Z,58.47
2023-10-09T08:38:12.757Z,58.74
2023-10-09T08:40:45.255Z,58.64
2023-10-09T08:43:24.069Z,57.85
2023-10-09T08:46:05.431Z,59.18
2023-10-09T08:48:39.745Z,59.73
2023-10-09T08:51:12.937Z,60.11
2023-10-09T08:53:45.482Z,61.00
2023-10-09T08:56:26.657Z,61.48
2023-10-09T08:58:59.450Z,61.28
2023-10-09T09:01:34.202Z,61.33
2023-10-09T09:04:05.090Z,60.65
2023-10-09T09:06:43.258Z,60.94
2023-10-09T09:09:18.172Z,61.15
2023-10-09T09:11:51.280Z,61.02
2023-10-09T09:14:22.160Z,60.75
2023-10-09T09:16:54.359Z,60.83
2023-10-09T09:19:34.956Z,60.90
2023-10-09T09:22:14.927Z,61.03
2023-10-09T09:25:05.395Z,61.36
2023-10-09T09:27:57.788Z,61.99
2023-10-09T09:30:40.104Z,61.19
2023-10-09T09:33:44.536Z,60.97
2023-10-09T09:36:15.144Z,61.49
2023-10-09T09:38:51.970Z,61.68
2023-10-09T09:41:28.862Z,61.52
2023-10-09T09:44:03.623Z,59.75
2023-10-09T09:46:39.436Z,54.77
2023-10-09T09:49:18.826Z,57.16
2023-10-09T09:51:50.284Z,57.27
2023-10-09T09:54:26.396Z,55.10
2023-10-09T09:57:01.430Z,55.73
2023-10-09T09:59:37.575Z,55.57
2023-10-09T10:02:10.512Z,56.27
2023-10-09T10:04:45.075Z,56.95
2023-10-09T10:07:18.470Z,56.15
2023-10-09T10:09:51.105Z,57.29
2023-10-09T10:12:49.335Z,57.89
2023-10-09T10:15:19.874Z,57.52
2023-10-09T10:18:21.481Z,57.74
2023-10-09T10:21:34.427Z,57.60
2023-10-09T10:24:08.689Z,57.75
2023-10-09T10:26:39.490Z,58.20
2023-10-09T10:29:28.619Z,57.98
2023-10-09T10:32:03.335Z,57.69
2023-10-09T10:35:08.688Z,56.65
2023-10-09T10:38:02.804Z,57.43
2023-10-09T10:40:48.666Z,57.56
2023-10-09T10:43:36.418Z,56.90
2023-10-09T10:46:17.789Z,58.04
2023-10-09T10:48:51.345Z,57.58
2023-10-09T10:51:24.168Z,57.52
2023-10-09T10:53:59.700Z,57.87
2023-10-09T10:56:39.059Z,57.42
2023-10-09T10:59:09.814Z,57.33
2023-10-09T11:02:00.397Z,57.93
2023-10-09T11:04:34.840Z,58.11
2023-10-09T11:07:12.133Z,58.77
2023-10-09T11:10:01.279Z,59.95
2023-10-09T11:12:47.022Z,60.07
2023-10-09T11:15:23.863Z,59.28
2023-10-09T11:18:27.345Z,59.60
2023-10-09T11:21:06.724Z,60.06
2023-10-09T11:23:37.676Z,59.70
2023-10-09T11:26:30.308Z,59.68
2023-10-09T11:29:21.129Z,60.37
2023-10-09T11:32:07.363Z,60.52
2023-10-09T11:34:47.537Z,60.64
2023-10-09T11:37:20.886Z,60.40
2023-10-09T11:39:57.875Z,60.40
2023-10-09T11:42:38.980Z,60.61
2023-10-09T11:45:25.457Z,60.79
2023-10-09T11:48:01.154Z,60.35
2023-10-09T11:51:18.715Z,60.90
2023-10-09T11:53:52.003Z,60.79
2023-10-09T11:56:29.510Z,59.82
2023-10-09T11:59:01.077Z,60.26
2023-10-09T12:01:37.594Z,60.91
2023-10-09T12:04:11.611Z,60.35
2023-10-09T12:06:44.748Z,62.21
2023-10-09T12:09:19.061Z,63.37
2023-10-09T12:12:03.653Z,64.48
2023-10-09T12:14:35.882Z,64.89
2023-10-09T12:17:10.818Z,65.46
2023-10-09T12:19:44.750Z,66.29
2023-10-09T12:22:18.378Z,66.94
2023-10-09T12:24:49.184Z,67.34
2023-10-09T12:27:22.467Z,66.04
2023-10-09T12:29:52.972Z,64.68
2023-10-09T12:32:23.548Z,64.88
2023-10-09T12:34:53.956Z,64.50
2023-10-09T12:37:24.695Z,65.18
2023-10-09T12:39:58.147Z,65.58
2023-10-09T12:42:30.417Z,65.26
2023-10-09T12:45:03.890Z,65.70
2023-10-09T12:47:35.256Z,65.64
2023-10-09T12:50:15.814Z,66.56
2023-10-09T12:52:46.480Z,65.74
2023-10-09T12:55:21.869Z,65.45
2023-10-09T12:57:53.889Z,66.47
2023-10-09T13:00:27.898Z,65.96
2023-10-09T13:02:58.575Z,65.51
2023-10-09T13:05:29.432Z,65.95
2023-10-09T13:08:00.284Z,65.85
2023-10-09T13:10:33.670Z,66.10
2023-10-09T13:13:08.680Z,66.31
2023-10-09T13:15:44.900Z,66.81
2023-10-09T13:18:17.090Z,66.58
2023-10-09T13:20:47.795Z,67.31
2023-10-09T13:23:18.593Z,67.42
2023-10-09T13:25:52.071Z,66.67
2023-10-09T13:28:23.028Z,65.66
2023-10-09T13:30:53.744Z,66.31
2023-10-09T13:33:24.838Z,66.52
2023-10-09T13:35:55.443Z,67.07
2023-10-09T13:38:27.312Z,67.78
2023-10-09T13:41:06.479Z,67.77
2023-10-09T13:43:37.178Z,68.92
2023-10-09T13:46:07.720Z,68.90
2023-10-09T13:48:43.245Z,69.10
2023-10-09T13:51:21.256Z,69.44
2023-10-09T13:53:52.394Z,70.59
2023-10-09T13:56:29.394Z,70.65
2023-10-09T13:59:02.829Z,68.45
2023-10-09T14:01:34.566Z,66.88
2023-10-09T14:04:08.449Z,66.22
2023-10-09T14:06:39.419Z,64.44
2023-10-09T14:09:11.453Z,63.52
2023-10-09T14:11:46.304Z,61.91
2023-10-09T14:14:18.659Z,61.04
2023-10-09T14:16:49.511Z,60.19
2023-10-09T14:19:23.342Z,59.40
2023-10-09T14:21:56.223Z,59.20
2023-10-09T14:24:35.154Z,60.83
2023-10-09T14:27:06.521Z,59.92
2023-10-09T14:29:39.952Z,58.95
2023-10-09T14:32:15.232Z,58.34
2023-10-09T14:34:52.665Z,57.92
2023-10-09T14:37:25.378Z,57.28
2023-10-09T14:39:57.595Z,56.66
2023-10-09T14:42:29.988Z,56.17
2023-10-09T14:45:01.022Z,55.82
2023-10-09T14:47:33.404Z,55.48
2023-10-09T14:50:10.524Z,55.13
2023-10-09T14:52:41.258Z,54.65
2023-10-09T14:55:12.986Z,54.21
2023-10-09T14:57:44.507Z,54.03
2023-10-09T15:00:16.997Z,53.52
2023-10-09T15:02:47.506Z,53.32
2023-10-09T15:05:18.395Z,52.84
2023-10-09T15:07:49.014Z,52.75
2023-10-09T15:10:20.464Z,52.63
2023-10-09T15:12:51.902Z,52.04
2023-10-09T15:15:27.863Z,52.14
2023-10-09T15:17:58.443Z,51.66
2023-10-09T15:20:29.391Z,51.68
2023-10-09T15:23:00.245Z,51.62
2023-10-09T15:25:30.670Z,51.82
2023-10-09T15:28:01.499Z,51.90
2023-10-09T15:30:33.769Z,51.52
2023-10-09T15:33:04.445Z,51.73
2023-10-09T15:35:37.833Z,51.60
2023-10-09T15:38:08.451Z,51.38
2023-10-09T15:40:44.123Z,51.94
2023-10-09T15:43:15.654Z,53.51
2023-10-09T15:45:52.844Z,53.15
2023-10-09T15:48:23.619Z,53.08
2023-10-09T15:50:56.283Z,52.96
2023-10-09T15:53:27.184Z,52.73
2023-10-09T15:55:59.572Z,52.40
2023-10-09T15:58:31.309Z,52.47
2023-10-09T16:01:05.036Z,50.18
2023-10-09T16:03:36.964Z,51.99
2023-10-09T16:06:07.572Z,52.00
2023-10-09T16:08:39.092Z,51.81
2023-10-09T16:11:10.133Z,52.09
2023-10-09T16:13:41.708Z,51.67
2023-10-09T16:16:12.217Z,51.28
2023-10-09T16:18:43.311Z,51.34
2023-10-09T16:21:14.552Z,51.32
2023-10-09T16:23:45.117Z,50.94
2023-10-09T16:26:15.934Z,50.17
2023-10-09T16:28:47.159Z,50.27
2023-10-09T16:31:21.034Z,50.27
2023-10-09T16:33:51.558Z,49.80
2023-10-09T16:36:23.382Z,49.52
2023-10-09T16:38:54.638Z,49.63
2023-10-09T16:41:28.132Z,49.46
2023-10-09T16:44:01.752Z,49.42
2023-10-09T16:46:32.366Z,49.49
2023-10-09T16:49:06.424Z,49.03
2023-10-09T16:51:37.211Z,48.63
2023-10-09T16:54:07.700Z,48.57
2023-10-09T16:56:38.628Z,48.67
2023-10-09T16:59:15.286Z,48.33
2023-10-09T17:01:49.722Z,47.58
2023-10-09T17:04:22.254Z,48.47
2023-10-09T17:06:54.592Z,48.34
2023-10-09T17:09:26.634Z,48.00
2023-10-09T17:11:59.921Z,48.34
2023-10-09T17:14:30.784Z,47.99
2023-10-09T17:17:01.276Z,47.72
2023-10-09T17:19:32.005Z,47.76
2023-10-09T17:22:12.981Z,47.58
2023-10-09T17:24:45.629Z,47.21
2023-10-09T17:27:19.891Z,47.63
2023-10-09T17:29:50.673Z,47.14
2023-10-09T17:32:21.304Z,47.23
2023-10-09T17:34:51.554Z,47.08
2023-10-09T17:37:25.311Z,47.13
2023-10-09T17:39:55.853Z,46.58
2023-10-09T17:42:26.670Z,46.78
2023-10-09T17:44:57.701Z,46.77
2023-10-09T17:47:28.620Z,47.04
2023-10-09T17:50:00.857Z,46.81
2023-10-09T17:52:31.536Z,47.00
2023-10-09T17:55:08.659Z,46.75
2023-10-09T17:57:43.446Z,46.62
2023-10-09T18:00:27.775Z,46.75
2023-10-09T18:02:58.893Z,46.13
2023-10-09T18:05:45.006Z,45.24
2023-10-09T18:08:27.669Z,46.07
2023-10-09T18:11:00.206Z,46.00
2023-10-09T18:13:30.989Z,45.95
2023-10-09T18:16:18.831Z,44.62
2023-10-09T18:18:50.908Z,46.10
2023-10-09T18:21:21.901Z,46.03
2023-10-09T18:23:52.585Z,45.96
2023-10-09T18:26:25.966Z,45.99
2023-10-09T18:28:56.583Z,45.85
2023-10-09T18:31:28.829Z,45.49
2023-10-09T18:34:00.396Z,45.85
2023-10-09T18:36:33.392Z,45.70
2023-10-09T18:39:04.710Z,45.55
2023-10-09T18:41:35.728Z,45.34
2023-10-09T18:44:11.744Z,45.21
2023-10-09T18:46:42.546Z,45.42
2023-10-09T18:49:14.332Z,45.20
2023-10-09T18:51:46.545Z,45.44
2023-10-09T18:54:16.644Z,43.65
2023-10-09T18:56:46.881Z,45.37
2023-10-09T18:59:17.737Z,44.89
2023-10-09T19:01:49.523Z,45.30
2023-10-09T19:04:20.652Z,44.96
2023-10-09T19:06:53.069Z,44.87
2023-10-09T19:09:24.890Z,44.60
2023-10-09T19:11:59.152Z,43.35
2023-10-09T19:14:31.132Z,44.79
2023-10-09T19:17:02.110Z,43.07
2023-10-09T19:19:32.777Z,44.89
2023-10-09T19:22:03.092Z,44.59
2023-10-09T19:24:34.002Z,44.87
2023-10-09T19:27:04.486Z,44.85
2023-10-09T19:29:34.892Z,44.57
2023-10-09T19:32:05.710Z,44.78
2023-10-09T19:34:36.923Z,44.85
2023-10-09T19:37:32.194Z,44.64
2023-10-09T19:40:09.963Z,44.13
2023-10-09T19:42:41.186Z,44.80
2023-10-09T19:45:15.542Z,44.48
2023-10-09T19:47:46.123Z,44.26
2023-10-09T19:50:16.785Z,44.37
2023-10-09T19:52:47.821Z,44.06
2023-10-09T19:55:23.640Z,44.27
2023-10-09T19:57:54.050Z,44.17
2023-10-09T20:00:24.485Z,44.27
2023-10-09T20:02:59.943Z,44.21
2023-10-09T20:05:31.201Z,44.29
2023-10-09T20:08:02.144Z,43.74
2023-10-09T20:10:33.078Z,44.37
2023-10-09T20:13:06.014Z,44.12
2023-10-09T20:15:36.566Z,43.82
2023-10-09T20:18:09.307Z,44.10
2023-10-09T20:20:40.805Z,43.64
2023-10-09T20:23:11.257Z,43.76
2023-10-09T20:25:41.738Z,43.79
2023-10-09T20:28:12.744Z,43.62
2023-10-09T20:30:43.135Z,43.83
2023-10-09T20:33:13.397Z,43.40
2023-10-09T20:35:54.164Z,42.64
2023-10-09T20:38:30.198Z,43.51
2023-10-09T20:41:02.993Z,43.96
2023-10-09T20:43:36.142Z,43.88
2023-10-09T20:46:12.246Z,43.78
2023-10-09T20:48:48.392Z,43.95
2023-10-09T20:51:20.750Z,43.53
2023-10-09T20:53:52.858Z,43.78
2023-10-09T20:56:26.220Z,43.48
2023-10-09T20:58:58.059Z,43.96
2023-10-09T21:01:29.073Z,43.72
2023-10-09T21:03:59.929Z,43.33
2023-10-09T21:06:31.297Z,43.55
2023-10-09T21:09:02.107Z,43.67
2023-10-09T21:11:33.463Z,43.86
2023-10-09T21:14:04.412Z,43.30
2023-10-09T21:16:35.410Z,43.57
2023-10-09T21:19:07.071Z,43.87
2023-10-09T21:21:39.478Z,43.88
2023-10-09T21:24:11.421Z,43.26
2023-10-09T21:26:42.232Z,43.27
2023-10-09T21:29:14.141Z,43.89
2023-10-09T21:31:45.384Z,43.58
2023-10-09T21:34:16.845Z,43.48
2023-10-09T21:36:48.425Z,43.50
2023-10-09T21:39:20.069Z,43.63
2023-10-09T21:41:50.885Z,43.62
2023-10-09T21:44:21.621Z,43.48
2023-10-09T21:46:52.908Z,43.19
2023-10-09T21:49:23.770Z,43.17
2023-10-09T21:52:14.825Z,42.86
2023-10-09T21:54:45.568Z,43.37
2023-10-09T21:57:17.123Z,43.08
2023-10-09T21:59:48.923Z,43.18
2023-10-09T22:02:20.644Z,43.26
2023-10-09T22:04:51.512Z,44.74
2023-10-09T22:07:32.361Z,45.97
2023-10-09T22:10:03.794Z,46.02
2023-10-09T22:12:34.796Z,46.14
2023-10-09T22:15:07.920Z,46.13
2023-10-09T22:17:45.870Z,46.63
2023-10-09T22:20:21.348Z,46.54
2023-10-09T22:22:58.589Z,46.92
2023-10-09T22:25:32.409Z,46.92
2023-10-09T22:28:04.508Z,46.92
2023-10-09T22:30:37.717Z,48.13
2023-10-09T22:33:14.660Z,47.80
2023-10-09T22:35:48.264Z,47.82
2023-10-09T22:38:22.963Z,47.52
2023-10-09T22:40:53.914Z,48.27
2023-10-09T22:43:26.117Z,48.16
2023-10-09T22:45:58.984Z,48.58
2023-10-09T22:48:29.983Z,48.41
2023-10-09T22:51:23.290Z,48.63
2023-10-09T22:53:54.239Z,48.91
2023-10-09T22:56:25.568Z,48.69
2023-10-09T22:58:57.478Z,48.79
2023-10-09T23:01:30.718Z,49.64
2023-10-09T23:04:16.531Z,50.01
2023-10-09T23:06:47.274Z,51.32
2023-10-09T23:09:18.749Z,50.61
2023-10-09T23:11:56.365Z,51.27
2023-10-09T23:14:28.947Z,51.25
2023-10-09T23:17:00.771Z,52.34
2023-10-09T23:19:34.938Z,51.44
2023-10-09T23:22:22.783Z,51.60
2023-10-09T23:24:53.726Z,51.74
2023-10-09T23:27:45.071Z,53.00
2023-10-09T23:30:24.636Z,52.03
2023-10-09T23:33:09.264Z,52.70
2023-10-09T23:35:57.407Z,52.17
2023-10-09T23:38:35.689Z,52.83
2023-10-09T23:41:12.478Z,55.48
2023-10-09T23:43:48.522Z,55.79
2023-10-09T23:46:19.375Z,57.79
2023-10-09T23:48:54.894Z,58.96
2023-10-09T23:51:29.152Z,61.59
2023-10-09T23:54:12.314Z,63.05
2023-10-09T23:57:01.659Z,64.08
2023-10-09T23:59:41.168Z,63.53
